sensor_id;sensor_type;location;lat;lon;timestamp;temperature;humidity
314;DHT22;143;51.634;7.112;2023-01-24T00:01:14;4.10;1.00
314;DHT22;143;51.634;7.112;2023-01-24T00:03:39;4.10;1.00
314;DHT22;143;51.634;7.112;2023-01-24T00:06:05;4.10;1.00
314;DHT22;143;51.634;7.112;2023-01-24T00:08:31;4.00;1.00
314;DHT22;143;51.634;7.112;2023-01-24T00:11:01;4.00;1.00
314;DHT22;143;51.634;7.112;2023-01-24T00:13:27;4.30;1.00
314;DHT22;143;51.634;7.112;2023-01-24T00:16:13;4.00;1.00
314;DHT22;143;51.634;7.112;2023-01-24T00:18:39;4.00;1.00
314;DHT22;143;51.634;7.112;2023-01-24T00:21:10;3.80;1.00
314;DHT22;143;51.634;7.112;2023-01-24T00:23:38;3.80;1.00
314;DHT22;143;51.634;7.112;2023-01-24T00:26:06;3.80;1.00
314;DHT22;143;51.634;7.112;2023-01-24T00:28:32;4.10;1.00
314;DHT22;143;51.634;7.112;2023-01-24T00:30:58;3.90;1.00
314;DHT22;143;51.634;7.112;2023-01-24T00:33:23;3.90;1.00
314;DHT22;143;51.634;7.112;2023-01-24T00:35:50;4.00;1.00
314;DHT22;143;51.634;7.112;2023-01-24T00:38:17;3.80;1.00
314;DHT22;143;51.634;7.112;2023-01-24T00:40:43;3.80;1.00
314;DHT22;143;51.634;7.112;2023-01-24T00:43:08;3.80;1.00
314;DHT22;143;51.634;7.112;2023-01-24T00:45:37;3.90;1.00
314;DHT22;143;51.634;7.112;2023-01-24T00:48:04;3.90;1.00
314;DHT22;143;51.634;7.112;2023-01-24T00:50:31;3.90;1.00
314;DHT22;143;51.634;7.112;2023-01-24T00:52:57;3.90;1.00
314;DHT22;143;51.634;7.112;2023-01-24T00:55:22;4.00;1.00
314;DHT22;143;51.634;7.112;2023-01-24T00:57:48;3.80;1.00
314;DHT22;143;51.634;7.112;2023-01-24T01:00:14;3.80;1.00
314;DHT22;143;51.634;7.112;2023-01-24T01:02:40;3.80;1.00
314;DHT22;143;51.634;7.112;2023-01-24T01:05:06;3.90;1.00
314;DHT22;143;51.634;7.112;2023-01-24T01:07:31;3.90;1.00
314;DHT22;143;51.634;7.112;2023-01-24T01:09:57;4.00;1.00
314;DHT22;143;51.634;7.112;2023-01-24T01:12:23;3.80;1.00
314;DHT22;143;51.634;7.112;2023-01-24T01:14:49;3.90;1.00
314;DHT22;143;51.634;7.112;2023-01-24T01:17:15;3.90;1.00
314;DHT22;143;51.634;7.112;2023-01-24T01:19:41;3.90;1.00
314;DHT22;143;51.634;7.112;2023-01-24T01:22:07;3.90;1.00
314;DHT22;143;51.634;7.112;2023-01-24T01:24:32;3.90;1.00
314;DHT22;143;51.634;7.112;2023-01-24T01:26:59;3.80;1.00
314;DHT22;143;51.634;7.112;2023-01-24T01:29:24;3.80;1.00
314;DHT22;143;51.634;7.112;2023-01-24T01:31:50;3.80;1.00
314;DHT22;143;51.634;7.112;2023-01-24T01:34:16;3.80;1.00
314;DHT22;143;51.634;7.112;2023-01-24T01:36:42;3.80;1.00
314;DHT22;143;51.634;7.112;2023-01-24T01:39:07;3.60;1.00
314;DHT22;143;51.634;7.112;2023-01-24T01:41:33;3.80;1.00
314;DHT22;143;51.634;7.112;2023-01-24T01:47:02;3.50;1.00
314;DHT22;143;51.634;7.112;2023-01-24T01:49:28;4.00;1.00
314;DHT22;143;51.634;7.112;2023-01-24T01:51:58;3.60;1.00
314;DHT22;143;51.634;7.112;2023-01-24T01:54:31;4.00;1.00
314;DHT22;143;51.634;7.112;2023-01-24T01:57:15;3.80;1.00
314;DHT22;143;51.634;7.112;2023-01-24T02:02:14;3.70;1.00
314;DHT22;143;51.634;7.112;2023-01-24T02:04:45;3.80;1.00
314;DHT22;143;51.634;7.112;2023-01-24T02:07:21;3.80;1.00
314;DHT22;143;51.634;7.112;2023-01-24T02:09:51;3.90;1.00
314;DHT22;143;51.634;7.112;2023-01-24T02:12:21;4.00;1.00
314;DHT22;143;51.634;7.112;2023-01-24T02:14:51;3.90;1.00
314;DHT22;143;51.634;7.112;2023-01-24T02:17:36;3.90;1.00
314;DHT22;143;51.634;7.112;2023-01-24T02:20:13;3.90;1.00
314;DHT22;143;51.634;7.112;2023-01-24T02:23:00;4.00;1.00
314;DHT22;143;51.634;7.112;2023-01-24T02:25:40;3.80;1.00
314;DHT22;143;51.634;7.112;2023-01-24T02:28:08;3.60;1.00
314;DHT22;143;51.634;7.112;2023-01-24T02:30:35;3.60;1.00
314;DHT22;143;51.634;7.112;2023-01-24T02:33:16;3.80;1.00
314;DHT22;143;51.634;7.112;2023-01-24T02:35:43;3.80;1.00
314;DHT22;143;51.634;7.112;2023-01-24T02:38:22;3.90;1.00
314;DHT22;143;51.634;7.112;2023-01-24T02:40:51;3.90;1.00
314;DHT22;143;51.634;7.112;2023-01-24T02:43:22;3.90;1.00
314;DHT22;143;51.634;7.112;2023-01-24T02:45:49;3.80;1.00
314;DHT22;143;51.634;7.112;2023-01-24T02:48:14;3.80;1.00
314;DHT22;143;51.634;7.112;2023-01-24T02:50:40;3.90;1.00
314;DHT22;143;51.634;7.112;2023-01-24T02:53:24;3.90;1.00
314;DHT22;143;51.634;7.112;2023-01-24T02:56:04;4.00;1.00
314;DHT22;143;51.634;7.112;2023-01-24T02:58:48;3.80;1.00
314;DHT22;143;51.634;7.112;2023-01-24T03:01:15;3.80;1.00
314;DHT22;143;51.634;7.112;2023-01-24T03:03:42;3.80;1.00
314;DHT22;143;51.634;7.112;2023-01-24T03:06:09;3.70;1.00
314;DHT22;143;51.634;7.112;2023-01-24T03:08:36;3.60;1.00
314;DHT22;143;51.634;7.112;2023-01-24T03:11:02;4.00;1.00
314;DHT22;143;51.634;7.112;2023-01-24T03:13:28;3.80;1.00
314;DHT22;143;51.634;7.112;2023-01-24T03:16:12;3.80;1.00
314;DHT22;143;51.634;7.112;2023-01-24T03:18:56;3.80;1.00
314;DHT22;143;51.634;7.112;2023-01-24T03:21:40;3.80;1.00
314;DHT22;143;51.634;7.112;2023-01-24T03:24:24;3.80;1.00
314;DHT22;143;51.634;7.112;2023-01-24T03:27:09;3.80;1.00
314;DHT22;143;51.634;7.112;2023-01-24T03:29:54;3.90;1.00
314;DHT22;143;51.634;7.112;2023-01-24T03:32:39;4.00;1.00
314;DHT22;143;51.634;7.112;2023-01-24T03:35:23;3.80;1.00
314;DHT22;143;51.634;7.112;2023-01-24T03:37:49;3.90;1.00
314;DHT22;143;51.634;7.112;2023-01-24T03:40:34;3.90;1.00
314;DHT22;143;51.634;7.112;2023-01-24T03:43:01;4.00;1.00
314;DHT22;143;51.634;7.112;2023-01-24T03:45:29;3.70;1.00
314;DHT22;143;51.634;7.112;2023-01-24T03:47:57;3.70;1.00
314;DHT22;143;51.634;7.112;2023-01-24T03:50:32;3.80;1.00
314;DHT22;143;51.634;7.112;2023-01-24T03:53:18;3.60;1.00
314;DHT22;143;51.634;7.112;2023-01-24T03:55:44;3.60;1.00
314;DHT22;143;51.634;7.112;2023-01-24T03:58:11;3.60;1.00
314;DHT22;143;51.634;7.112;2023-01-24T04:00:37;3.60;1.00
314;DHT22;143;51.634;7.112;2023-01-24T04:03:03;3.70;1.00
314;DHT22;143;51.634;7.112;2023-01-24T04:05:29;3.50;1.00
314;DHT22;143;51.634;7.112;2023-01-24T04:07:57;3.60;1.00
314;DHT22;143;51.634;7.112;2023-01-24T04:10:23;3.60;1.00
314;DHT22;143;51.634;7.112;2023-01-24T04:12:49;3.60;1.00
314;DHT22;143;51.634;7.112;2023-01-24T04:15:18;3.60;1.00
314;DHT22;143;51.634;7.112;2023-01-24T04:17:44;3.60;1.00
314;DHT22;143;51.634;7.112;2023-01-24T04:20:10;3.40;1.00
314;DHT22;143;51.634;7.112;2023-01-24T04:22:36;3.70;1.00
314;DHT22;143;51.634;7.112;2023-01-24T04:25:01;3.40;1.00
314;DHT22;143;51.634;7.112;2023-01-24T04:27:27;3.60;1.00
314;DHT22;143;51.634;7.112;2023-01-24T04:29:53;3.70;1.00
314;DHT22;143;51.634;7.112;2023-01-24T04:32:18;3.70;1.00
314;DHT22;143;51.634;7.112;2023-01-24T04:34:44;3.50;1.00
314;DHT22;143;51.634;7.112;2023-01-24T04:37:10;3.50;1.00
314;DHT22;143;51.634;7.112;2023-01-24T04:39:36;3.60;1.00
314;DHT22;143;51.634;7.112;2023-01-24T04:42:01;3.60;1.00
314;DHT22;143;51.634;7.112;2023-01-24T04:44:27;3.60;1.00
314;DHT22;143;51.634;7.112;2023-01-24T04:46:53;3.70;1.00
314;DHT22;143;51.634;7.112;2023-01-24T04:49:18;3.70;1.00
314;DHT22;143;51.634;7.112;2023-01-24T04:51:47;3.60;1.00
314;DHT22;143;51.634;7.112;2023-01-24T04:54:13;3.60;1.00
314;DHT22;143;51.634;7.112;2023-01-24T04:56:39;3.70;1.00
314;DHT22;143;51.634;7.112;2023-01-24T04:59:05;3.90;1.00
314;DHT22;143;51.634;7.112;2023-01-24T05:01:31;3.60;1.00
314;DHT22;143;51.634;7.112;2023-01-24T05:03:56;3.60;1.00
314;DHT22;143;51.634;7.112;2023-01-24T05:06:28;3.60;1.00
314;DHT22;143;51.634;7.112;2023-01-24T05:08:55;3.80;1.00
314;DHT22;143;51.634;7.112;2023-01-24T05:11:21;3.80;1.00
314;DHT22;143;51.634;7.112;2023-01-24T05:13:47;3.90;1.00
314;DHT22;143;51.634;7.112;2023-01-24T05:16:13;4.00;1.00
314;DHT22;143;51.634;7.112;2023-01-24T05:18:39;3.90;1.00
314;DHT22;143;51.634;7.112;2023-01-24T05:21:13;3.90;1.00
314;DHT22;143;51.634;7.112;2023-01-24T05:23:40;4.00;1.00
314;DHT22;143;51.634;7.112;2023-01-24T05:26:06;3.90;1.00
314;DHT22;143;51.634;7.112;2023-01-24T05:28:32;4.00;1.00
314;DHT22;143;51.634;7.112;2023-01-24T05:31:01;3.90;1.00
314;DHT22;143;51.634;7.112;2023-01-24T05:33:28;4.00;1.00
314;DHT22;143;51.634;7.112;2023-01-24T05:36:03;3.90;1.00
314;DHT22;143;51.634;7.112;2023-01-24T05:38:30;4.00;1.00
314;DHT22;143;51.634;7.112;2023-01-24T05:41:01;3.90;1.00
314;DHT22;143;51.634;7.112;2023-01-24T05:43:28;4.00;1.00
314;DHT22;143;51.634;7.112;2023-01-24T05:45:58;3.90;1.00
314;DHT22;143;51.634;7.112;2023-01-24T05:48:24;4.00;1.00
314;DHT22;143;51.634;7.112;2023-01-24T05:50:55;3.70;1.00
314;DHT22;143;51.634;7.112;2023-01-24T05:53:20;3.50;1.00
314;DHT22;143;51.634;7.112;2023-01-24T05:55:46;3.50;1.00
314;DHT22;143;51.634;7.112;2023-01-24T05:58:12;3.50;1.00
314;DHT22;143;51.634;7.112;2023-01-24T06:00:37;3.60;1.00
314;DHT22;143;51.634;7.112;2023-01-24T06:03:03;3.60;1.00
314;DHT22;143;51.634;7.112;2023-01-24T06:05:29;3.60;1.00
314;DHT22;143;51.634;7.112;2023-01-24T06:07:55;3.60;1.00
314;DHT22;143;51.634;7.112;2023-01-24T06:10:20;3.60;1.00
314;DHT22;143;51.634;7.112;2023-01-24T06:12:46;3.60;1.00
314;DHT22;143;51.634;7.112;2023-01-24T06:15:11;3.60;1.00
314;DHT22;143;51.634;7.112;2023-01-24T06:17:37;3.60;1.00
314;DHT22;143;51.634;7.112;2023-01-24T06:20:03;3.60;1.00
314;DHT22;143;51.634;7.112;2023-01-24T06:24:58;3.70;1.00
314;DHT22;143;51.634;7.112;2023-01-24T06:27:24;3.50;1.00
314;DHT22;143;51.634;7.112;2023-01-24T06:29:50;3.60;1.00
314;DHT22;143;51.634;7.112;2023-01-24T06:32:37;3.60;1.00
314;DHT22;143;51.634;7.112;2023-01-24T06:37:51;3.80;1.00
314;DHT22;143;51.634;7.112;2023-01-24T06:40:22;3.60;1.00
314;DHT22;143;51.634;7.112;2023-01-24T06:42:49;3.80;1.00
314;DHT22;143;51.634;7.112;2023-01-24T06:45:15;3.80;1.00
314;DHT22;143;51.634;7.112;2023-01-24T06:47:41;3.90;1.00
314;DHT22;143;51.634;7.112;2023-01-24T06:50:14;3.90;1.00
314;DHT22;143;51.634;7.112;2023-01-24T06:52:40;3.70;1.00
314;DHT22;143;51.634;7.112;2023-01-24T06:55:06;3.90;1.00
314;DHT22;143;51.634;7.112;2023-01-24T06:57:32;4.00;1.00
314;DHT22;143;51.634;7.112;2023-01-24T06:59:57;3.90;1.00
314;DHT22;143;51.634;7.112;2023-01-24T07:02:23;4.00;1.00
314;DHT22;143;51.634;7.112;2023-01-24T07:04:49;3.90;1.00
314;DHT22;143;51.634;7.112;2023-01-24T07:07:14;4.00;1.00
314;DHT22;143;51.634;7.112;2023-01-24T07:09:40;3.90;1.00
314;DHT22;143;51.634;7.112;2023-01-24T07:12:06;3.70;1.00
314;DHT22;143;51.634;7.112;2023-01-24T07:14:32;3.80;1.00
314;DHT22;143;51.634;7.112;2023-01-24T07:16:58;3.90;1.00
314;DHT22;143;51.634;7.112;2023-01-24T07:19:24;3.60;1.00
314;DHT22;143;51.634;7.112;2023-01-24T07:21:52;3.60;1.00
314;DHT22;143;51.634;7.112;2023-01-24T07:24:21;3.60;1.00
314;DHT22;143;51.634;7.112;2023-01-24T07:26:48;3.80;1.00
314;DHT22;143;51.634;7.112;2023-01-24T07:29:18;3.60;1.00
314;DHT22;143;51.634;7.112;2023-01-24T07:31:44;3.80;1.00
314;DHT22;143;51.634;7.112;2023-01-24T07:34:10;3.70;1.00
314;DHT22;143;51.634;7.112;2023-01-24T07:36:36;3.50;1.00
314;DHT22;143;51.634;7.112;2023-01-24T07:39:02;3.70;1.00
314;DHT22;143;51.634;7.112;2023-01-24T07:41:28;3.50;1.00
314;DHT22;143;51.634;7.112;2023-01-24T07:43:55;3.50;1.00
314;DHT22;143;51.634;7.112;2023-01-24T07:46:20;3.80;1.00
314;DHT22;143;51.634;7.112;2023-01-24T07:48:46;3.80;1.00
314;DHT22;143;51.634;7.112;2023-01-24T07:51:12;3.70;1.00
314;DHT22;143;51.634;7.112;2023-01-24T07:53:37;3.50;1.00
314;DHT22;143;51.634;7.112;2023-01-24T07:56:03;3.60;1.00
314;DHT22;143;51.634;7.112;2023-01-24T07:58:30;3.60;1.00
314;DHT22;143;51.634;7.112;2023-01-24T08:00:56;3.60;1.00
314;DHT22;143;51.634;7.112;2023-01-24T08:03:21;3.60;1.00
314;DHT22;143;51.634;7.112;2023-01-24T08:05:47;3.60;1.00
314;DHT22;143;51.634;7.112;2023-01-24T08:08:13;3.60;1.00
314;DHT22;143;51.634;7.112;2023-01-24T08:10:38;3.60;1.00
314;DHT22;143;51.634;7.112;2023-01-24T08:13:04;3.60;1.00
314;DHT22;143;51.634;7.112;2023-01-24T08:15:30;3.80;1.00
314;DHT22;143;51.634;7.112;2023-01-24T08:17:56;3.80;1.00
314;DHT22;143;51.634;7.112;2023-01-24T08:20:21;3.70;1.00
314;DHT22;143;51.634;7.112;2023-01-24T08:22:47;3.80;1.00
314;DHT22;143;51.634;7.112;2023-01-24T08:25:13;3.80;1.00
314;DHT22;143;51.634;7.112;2023-01-24T08:27:42;3.90;1.00
314;DHT22;143;51.634;7.112;2023-01-24T08:30:09;3.70;1.00
314;DHT22;143;51.634;7.112;2023-01-24T08:32:36;3.70;1.00
314;DHT22;143;51.634;7.112;2023-01-24T08:35:03;3.90;1.00
314;DHT22;143;51.634;7.112;2023-01-24T08:37:28;3.90;1.00
314;DHT22;143;51.634;7.112;2023-01-24T08:39:54;3.90;1.00
314;DHT22;143;51.634;7.112;2023-01-24T08:42:22;3.70;1.00
314;DHT22;143;51.634;7.112;2023-01-24T08:44:48;3.90;1.00
314;DHT22;143;51.634;7.112;2023-01-24T08:47:14;3.80;1.00
314;DHT22;143;51.634;7.112;2023-01-24T08:49:39;3.70;1.00
314;DHT22;143;51.634;7.112;2023-01-24T08:52:05;3.90;1.00
314;DHT22;143;51.634;7.112;2023-01-24T08:54:31;3.70;1.00
314;DHT22;143;51.634;7.112;2023-01-24T08:56:58;3.90;1.00
314;DHT22;143;51.634;7.112;2023-01-24T08:59:24;3.80;1.00
314;DHT22;143;51.634;7.112;2023-01-24T09:01:50;3.70;1.00
314;DHT22;143;51.634;7.112;2023-01-24T09:04:16;3.50;1.00
314;DHT22;143;51.634;7.112;2023-01-24T09:06:41;3.60;1.00
314;DHT22;143;51.634;7.112;2023-01-24T09:09:07;3.80;1.00
314;DHT22;143;51.634;7.112;2023-01-24T09:11:33;3.80;1.00
314;DHT22;143;51.634;7.112;2023-01-24T09:13:59;3.80;1.00
314;DHT22;143;51.634;7.112;2023-01-24T09:16:25;3.90;1.00
314;DHT22;143;51.634;7.112;2023-01-24T09:18:53;3.70;1.00
314;DHT22;143;51.634;7.112;2023-01-24T09:21:19;3.90;1.00
314;DHT22;143;51.634;7.112;2023-01-24T09:23:45;3.80;1.00
314;DHT22;143;51.634;7.112;2023-01-24T09:26:11;3.80;1.00
314;DHT22;143;51.634;7.112;2023-01-24T09:28:36;3.90;1.00
314;DHT22;143;51.634;7.112;2023-01-24T09:31:02;3.70;1.00
314;DHT22;143;51.634;7.112;2023-01-24T09:33:29;3.80;1.00
314;DHT22;143;51.634;7.112;2023-01-24T09:35:57;3.80;1.00
314;DHT22;143;51.634;7.112;2023-01-24T09:38:27;3.80;1.00
314;DHT22;143;51.634;7.112;2023-01-24T09:43:46;3.80;1.00
314;DHT22;143;51.634;7.112;2023-01-24T09:51:37;4.00;1.00
314;DHT22;143;51.634;7.112;2023-01-24T09:54:05;4.00;1.00
314;DHT22;143;51.634;7.112;2023-01-24T09:56:37;4.00;1.00
314;DHT22;143;51.634;7.112;2023-01-24T09:59:18;4.00;1.00
314;DHT22;143;51.634;7.112;2023-01-24T10:01:50;4.00;1.00
314;DHT22;143;51.634;7.112;2023-01-24T10:04:31;4.30;1.00
314;DHT22;143;51.634;7.112;2023-01-24T10:10:00;4.10;1.00
314;DHT22;143;51.634;7.112;2023-01-24T10:15:46;4.00;1.00
314;DHT22;143;51.634;7.112;2023-01-24T10:23:57;3.90;1.00
314;DHT22;143;51.634;7.112;2023-01-24T10:26:41;4.10;1.00
314;DHT22;143;51.634;7.112;2023-01-24T10:29:31;4.00;1.00
314;DHT22;143;51.634;7.112;2023-01-24T10:32:05;3.80;1.00
314;DHT22;143;51.634;7.112;2023-01-24T10:39:36;4.20;1.00
314;DHT22;143;51.634;7.112;2023-01-24T10:42:08;4.20;1.00
314;DHT22;143;51.634;7.112;2023-01-24T10:44:39;4.20;1.00
314;DHT22;143;51.634;7.112;2023-01-24T10:49:41;4.20;1.00
314;DHT22;143;51.634;7.112;2023-01-24T10:52:13;4.30;1.00
314;DHT22;143;51.634;7.112;2023-01-24T10:54:52;4.10;1.00
314;DHT22;143;51.634;7.112;2023-01-24T10:57:43;4.10;1.00
314;DHT22;143;51.634;7.112;2023-01-24T11:00:27;4.10;1.00
314;DHT22;143;51.634;7.112;2023-01-24T11:02:58;4.10;1.00
314;DHT22;143;51.634;7.112;2023-01-24T11:05:34;4.10;1.00
314;DHT22;143;51.634;7.112;2023-01-24T11:08:00;4.10;1.00
314;DHT22;143;51.634;7.112;2023-01-24T11:10:44;4.10;1.00
314;DHT22;143;51.634;7.112;2023-01-24T11:13:35;4.10;1.00
314;DHT22;143;51.634;7.112;2023-01-24T11:19:04;4.20;1.00
314;DHT22;143;51.634;7.112;2023-01-24T11:21:31;4.30;1.00
314;DHT22;143;51.634;7.112;2023-01-24T11:26:35;4.40;1.00
314;DHT22;143;51.634;7.112;2023-01-24T11:29:05;4.60;1.00
314;DHT22;143;51.634;7.112;2023-01-24T11:31:39;4.40;1.00
314;DHT22;143;51.634;7.112;2023-01-24T11:39:54;4.80;1.00
314;DHT22;143;51.634;7.112;2023-01-24T11:42:51;4.50;1.00
314;DHT22;143;51.634;7.112;2023-01-24T11:50:36;4.80;99.90
314;DHT22;143;51.634;7.112;2023-01-24T11:55:48;4.60;99.90
314;DHT22;143;51.634;7.112;2023-01-24T11:58:25;4.60;99.90
314;DHT22;143;51.634;7.112;2023-01-24T12:09:21;4.30;99.90
314;DHT22;143;51.634;7.112;2023-01-24T12:12:09;4.20;99.90
314;DHT22;143;51.634;7.112;2023-01-24T12:17:57;4.60;1.00
314;DHT22;143;51.634;7.112;2023-01-24T12:23:34;4.80;1.00
314;DHT22;143;51.634;7.112;2023-01-24T12:26:14;4.90;1.00
314;DHT22;143;51.634;7.112;2023-01-24T12:31:49;4.70;99.90
314;DHT22;143;51.634;7.112;2023-01-24T12:40:07;4.70;99.90
314;DHT22;143;51.634;7.112;2023-01-24T12:45:40;4.90;99.90
314;DHT22;143;51.634;7.112;2023-01-24T12:56:25;5.10;99.90
314;DHT22;143;51.634;7.112;2023-01-24T12:58:52;5.00;99.90
314;DHT22;143;51.634;7.112;2023-01-24T13:06:43;5.10;99.90
314;DHT22;143;51.634;7.112;2023-01-24T13:09:28;4.90;99.90
314;DHT22;143;51.634;7.112;2023-01-24T13:11:57;4.90;99.90
314;DHT22;143;51.634;7.112;2023-01-24T13:14:26;5.00;99.90
314;DHT22;143;51.634;7.112;2023-01-24T13:17:30;5.10;99.90
314;DHT22;143;51.634;7.112;2023-01-24T13:28:48;5.10;99.90
314;DHT22;143;51.634;7.112;2023-01-24T13:34:03;5.00;99.90
314;DHT22;143;51.634;7.112;2023-01-24T13:36:34;5.10;99.90
314;DHT22;143;51.634;7.112;2023-01-24T13:39:02;5.00;99.90
314;DHT22;143;51.634;7.112;2023-01-24T13:41:33;5.20;99.90
314;DHT22;143;51.634;7.112;2023-01-24T13:49:17;5.10;99.90
314;DHT22;143;51.634;7.112;2023-01-24T13:51:48;4.90;99.90
314;DHT22;143;51.634;7.112;2023-01-24T13:54:19;5.10;99.90
314;DHT22;143;51.634;7.112;2023-01-24T13:57:26;5.00;99.90
314;DHT22;143;51.634;7.112;2023-01-24T14:07:58;5.10;99.90
314;DHT22;143;51.634;7.112;2023-01-24T14:10:44;5.00;99.90
314;DHT22;143;51.634;7.112;2023-01-24T14:21:30;5.00;99.90
314;DHT22;143;51.634;7.112;2023-01-24T14:24:18;5.20;99.90
314;DHT22;143;51.634;7.112;2023-01-24T14:26:44;5.20;99.90
314;DHT22;143;51.634;7.112;2023-01-24T14:29:15;5.10;99.90
314;DHT22;143;51.634;7.112;2023-01-24T14:31:45;5.00;99.90
314;DHT22;143;51.634;7.112;2023-01-24T14:35:03;5.20;99.90
314;DHT22;143;51.634;7.112;2023-01-24T14:37:09;4.60;99.90
314;DHT22;143;51.634;7.112;2023-01-24T14:39:35;4.90;99.90
314;DHT22;143;51.634;7.112;2023-01-24T14:42:06;4.60;99.90
314;DHT22;143;51.634;7.112;2023-01-24T14:44:38;4.80;99.90
314;DHT22;143;51.634;7.112;2023-01-24T14:47:13;4.80;99.90
314;DHT22;143;51.634;7.112;2023-01-24T14:49:45;4.80;99.90
314;DHT22;143;51.634;7.112;2023-01-24T14:54:47;4.90;99.90
314;DHT22;143;51.634;7.112;2023-01-24T15:02:50;4.70;99.90
314;DHT22;143;51.634;7.112;2023-01-24T15:07:50;4.80;99.90
314;DHT22;143;51.634;7.112;2023-01-24T15:10:25;4.80;99.90
314;DHT22;143;51.634;7.112;2023-01-24T15:12:53;4.90;99.90
314;DHT22;143;51.634;7.112;2023-01-24T15:15:20;4.60;99.90
314;DHT22;143;51.634;7.112;2023-01-24T15:17:48;4.70;99.90
314;DHT22;143;51.634;7.112;2023-01-24T15:20:21;4.60;99.90
314;DHT22;143;51.634;7.112;2023-01-24T15:22:50;4.90;99.90
314;DHT22;143;51.634;7.112;2023-01-24T15:25:29;4.90;99.90
314;DHT22;143;51.634;7.112;2023-01-24T15:27:57;4.60;99.90
314;DHT22;143;51.634;7.112;2023-01-24T15:30:32;4.70;99.90
314;DHT22;143;51.634;7.112;2023-01-24T15:33:10;4.40;99.90
314;DHT22;143;51.634;7.112;2023-01-24T15:35:45;4.40;99.90
314;DHT22;143;51.634;7.112;2023-01-24T15:38:22;4.60;99.90
314;DHT22;143;51.634;7.112;2023-01-24T15:40:55;4.60;99.90
314;DHT22;143;51.634;7.112;2023-01-24T15:43:37;4.60;99.90
314;DHT22;143;51.634;7.112;2023-01-24T15:49:20;4.30;99.90
314;DHT22;143;51.634;7.112;2023-01-24T15:54:24;4.20;99.90
314;DHT22;143;51.634;7.112;2023-01-24T15:56:52;4.10;99.90
314;DHT22;143;51.634;7.112;2023-01-24T15:59:18;4.10;99.90
314;DHT22;143;51.634;7.112;2023-01-24T16:01:45;4.10;99.90
314;DHT22;143;51.634;7.112;2023-01-24T16:04:16;4.00;99.90
314;DHT22;143;51.634;7.112;2023-01-24T16:06:42;3.80;99.90
314;DHT22;143;51.634;7.112;2023-01-24T16:09:09;3.80;99.90
314;DHT22;143;51.634;7.112;2023-01-24T16:11:36;4.20;99.90
314;DHT22;143;51.634;7.112;2023-01-24T16:14:02;3.90;99.90
314;DHT22;143;51.634;7.112;2023-01-24T16:16:28;4.00;99.90
314;DHT22;143;51.634;7.112;2023-01-24T16:18:54;4.00;99.90
314;DHT22;143;51.634;7.112;2023-01-24T16:21:20;4.20;99.90
314;DHT22;143;51.634;7.112;2023-01-24T16:23:45;4.20;99.90
314;DHT22;143;51.634;7.112;2023-01-24T16:28:44;3.90;99.90
314;DHT22;143;51.634;7.112;2023-01-24T16:31:10;3.80;99.90
314;DHT22;143;51.634;7.112;2023-01-24T16:33:35;4.10;99.90
314;DHT22;143;51.634;7.112;2023-01-24T16:36:01;3.90;99.90
314;DHT22;143;51.634;7.112;2023-01-24T16:38:27;3.90;99.90
314;DHT22;143;51.634;7.112;2023-01-24T16:40:52;3.90;99.90
314;DHT22;143;51.634;7.112;2023-01-24T16:43:20;3.90;99.90
314;DHT22;143;51.634;7.112;2023-01-24T16:45:47;3.90;99.90
314;DHT22;143;51.634;7.112;2023-01-24T16:48:13;3.90;99.90
314;DHT22;143;51.634;7.112;2023-01-24T16:50:40;4.10;99.90
314;DHT22;143;51.634;7.112;2023-01-24T16:53:06;3.80;99.90
314;DHT22;143;51.634;7.112;2023-01-24T16:55:33;3.80;99.90
314;DHT22;143;51.634;7.112;2023-01-24T16:58:00;4.20;99.90
314;DHT22;143;51.634;7.112;2023-01-24T17:00:26;3.80;99.90
314;DHT22;143;51.634;7.112;2023-01-24T17:02:52;3.80;99.90
314;DHT22;143;51.634;7.112;2023-01-24T17:05:18;4.10;99.90
314;DHT22;143;51.634;7.112;2023-01-24T17:07:48;3.90;99.90
314;DHT22;143;51.634;7.112;2023-01-24T17:10:14;3.80;99.90
314;DHT22;143;51.634;7.112;2023-01-24T17:12:40;3.90;99.90
314;DHT22;143;51.634;7.112;2023-01-24T17:15:06;4.00;99.90
314;DHT22;143;51.634;7.112;2023-01-24T17:17:36;4.10;99.90
314;DHT22;143;51.634;7.112;2023-01-24T17:20:06;4.20;99.90
314;DHT22;143;51.634;7.112;2023-01-24T17:22:32;4.00;99.90
314;DHT22;143;51.634;7.112;2023-01-24T17:24:58;3.90;99.90
314;DHT22;143;51.634;7.112;2023-01-24T17:27:23;3.90;99.90
314;DHT22;143;51.634;7.112;2023-01-24T17:29:49;3.70;99.90
314;DHT22;143;51.634;7.112;2023-01-24T17:32:15;3.80;99.90
314;DHT22;143;51.634;7.112;2023-01-24T17:34:40;3.80;1.00
314;DHT22;143;51.634;7.112;2023-01-24T17:37:06;3.80;1.00
314;DHT22;143;51.634;7.112;2023-01-24T17:39:31;3.80;1.00
314;DHT22;143;51.634;7.112;2023-01-24T17:41:57;3.80;1.00
314;DHT22;143;51.634;7.112;2023-01-24T17:44:23;3.90;1.00
314;DHT22;143;51.634;7.112;2023-01-24T17:46:48;3.90;1.00
314;DHT22;143;51.634;7.112;2023-01-24T17:49:14;3.90;1.00
314;DHT22;143;51.634;7.112;2023-01-24T17:51:40;3.90;1.00
314;DHT22;143;51.634;7.112;2023-01-24T17:54:09;3.90;1.00
314;DHT22;143;51.634;7.112;2023-01-24T17:56:38;4.00;99.90
314;DHT22;143;51.634;7.112;2023-01-24T17:59:04;3.80;99.90
314;DHT22;143;51.634;7.112;2023-01-24T18:01:30;3.70;1.00
314;DHT22;143;51.634;7.112;2023-01-24T18:03:55;3.80;1.00
314;DHT22;143;51.634;7.112;2023-01-24T18:06:21;3.80;1.00
314;DHT22;143;51.634;7.112;2023-01-24T18:08:47;3.70;1.00
314;DHT22;143;51.634;7.112;2023-01-24T18:11:14;3.70;1.00
314;DHT22;143;51.634;7.112;2023-01-24T18:13:40;3.50;1.00
314;DHT22;143;51.634;7.112;2023-01-24T18:16:08;4.00;1.00
314;DHT22;143;51.634;7.112;2023-01-24T18:18:36;3.80;1.00
314;DHT22;143;51.634;7.112;2023-01-24T18:21:28;3.80;1.00
314;DHT22;143;51.634;7.112;2023-01-24T18:23:55;3.70;1.00
314;DHT22;143;51.634;7.112;2023-01-24T18:26:22;3.70;1.00
314;DHT22;143;51.634;7.112;2023-01-24T18:28:48;3.80;1.00
314;DHT22;143;51.634;7.112;2023-01-24T18:31:14;3.60;1.00
314;DHT22;143;51.634;7.112;2023-01-24T18:33:40;3.70;1.00
314;DHT22;143;51.634;7.112;2023-01-24T18:36:16;3.60;1.00
314;DHT22;143;51.634;7.112;2023-01-24T18:38:43;3.60;1.00
314;DHT22;143;51.634;7.112;2023-01-24T18:41:09;3.60;1.00
314;DHT22;143;51.634;7.112;2023-01-24T18:43:35;3.60;1.00
314;DHT22;143;51.634;7.112;2023-01-24T18:46:05;3.60;1.00
314;DHT22;143;51.634;7.112;2023-01-24T18:48:35;3.60;1.00
314;DHT22;143;51.634;7.112;2023-01-24T18:51:27;3.60;1.00
314;DHT22;143;51.634;7.112;2023-01-24T18:53:54;3.60;1.00
314;DHT22;143;51.634;7.112;2023-01-24T18:56:20;3.60;1.00
314;DHT22;143;51.634;7.112;2023-01-24T18:58:47;3.70;1.00
314;DHT22;143;51.634;7.112;2023-01-24T19:01:15;3.50;1.00
314;DHT22;143;51.634;7.112;2023-01-24T19:03:41;3.60;1.00
314;DHT22;143;51.634;7.112;2023-01-24T19:06:08;3.60;1.00
314;DHT22;143;51.634;7.112;2023-01-24T19:08:34;3.60;1.00
314;DHT22;143;51.634;7.112;2023-01-24T19:11:00;3.50;1.00
314;DHT22;143;51.634;7.112;2023-01-24T19:13:26;3.60;1.00
314;DHT22;143;51.634;7.112;2023-01-24T19:15:59;3.60;1.00
314;DHT22;143;51.634;7.112;2023-01-24T19:18:26;3.60;1.00
314;DHT22;143;51.634;7.112;2023-01-24T19:20:51;3.50;1.00
314;DHT22;143;51.634;7.112;2023-01-24T19:23:17;3.60;1.00
314;DHT22;143;51.634;7.112;2023-01-24T19:25:43;3.60;1.00
314;DHT22;143;51.634;7.112;2023-01-24T19:28:08;3.60;1.00
314;DHT22;143;51.634;7.112;2023-01-24T19:30:35;3.70;1.00
314;DHT22;143;51.634;7.112;2023-01-24T19:33:00;3.60;1.00
314;DHT22;143;51.634;7.112;2023-01-24T19:35:26;3.80;1.00
314;DHT22;143;51.634;7.112;2023-01-24T19:37:52;3.80;1.00
314;DHT22;143;51.634;7.112;2023-01-24T19:40:19;3.90;1.00
314;DHT22;143;51.634;7.112;2023-01-24T19:42:45;3.80;1.00
314;DHT22;143;51.634;7.112;2023-01-24T19:45:14;3.80;1.00
314;DHT22;143;51.634;7.112;2023-01-24T19:47:42;3.80;1.00
314;DHT22;143;51.634;7.112;2023-01-24T19:50:08;3.70;1.00